createdAt,value
2018-04-29T00:01:56.052Z,86.80
2018-04-29T00:04:24.337Z,86.91
2018-04-29T00:06:52.615Z,86.47
2018-04-29T00:09:20.876Z,86.36
2018-04-29T00:11:49.184Z,86.38
2018-04-29T00:14:17.448Z,86.25
2018-04-29T00:16:45.704Z,86.03
2018-04-29T00:19:14.023Z,86.13
2018-04-29T00:21:42.283Z,85.95
2018-04-29T00:24:10.630Z,85.92
2018-04-29T00:26:38.923Z,85.71
2018-04-29T00:29:07.187Z,87.23
2018-04-29T00:31:35.438Z,87.25
2018-04-29T00:34:04.575Z,87.09
2018-04-29T00:36:32.843Z,88.55
2018-04-29T00:39:01.118Z,89.21
2018-04-29T00:41:29.510Z,88.82
2018-04-29T00:43:57.770Z,88.07
2018-04-29T00:46:26.031Z,87.58
2018-04-29T00:48:55.153Z,87.57
2018-04-29T00:51:41.536Z,88.36
2018-04-29T00:54:09.748Z,88.08
2018-04-29T00:56:38.006Z,88.09
2018-04-29T00:59:06.355Z,89.44
2018-04-29T01:01:34.563Z,89.89
2018-04-29T01:04:02.831Z,89.78
2018-04-29T01:06:31.086Z,89.52
2018-04-29T01:08:59.391Z,89.15
2018-04-29T01:11:27.650Z,88.87
2018-04-29T01:13:55.908Z,88.78
2018-04-29T01:16:25.037Z,88.46
2018-04-29T01:18:53.318Z,88.27
2018-04-29T01:21:21.580Z,88.57
2018-04-29T01:23:49.883Z,88.18
2018-04-29T01:26:18.146Z,88.30
2018-04-29T01:28:46.411Z,88.11
2018-04-29T01:31:14.733Z,87.85
2018-04-29T01:33:42.991Z,88.06
2018-04-29T01:36:11.255Z,88.64
2018-04-29T01:38:39.554Z,89.34
2018-04-29T01:41:07.803Z,91.65
2018-04-29T01:43:36.055Z,91.52
2018-04-29T01:46:04.327Z,90.88
2018-04-29T01:48:32.594Z,90.41
2018-04-29T01:51:01.608Z,90.26
2018-04-29T01:53:29.888Z,89.86
2018-04-29T01:55:58.147Z,90.36
2018-04-29T01:58:27.272Z,90.93
2018-04-29T02:00:55.542Z,90.33
2018-04-29T02:03:23.801Z,89.84
2018-04-29T02:05:52.093Z,90.51
2018-04-29T02:08:20.458Z,90.78
2018-04-29T02:10:48.716Z,90.66
2018-04-29T02:13:17.730Z,90.55
2018-04-29T02:15:46.002Z,90.59
2018-04-29T02:18:14.250Z,92.60
2018-04-29T02:20:42.522Z,93.13
2018-04-29T02:23:10.783Z,93.63
2018-04-29T02:25:39.124Z,92.91
2018-04-29T02:28:07.402Z,91.96
2018-04-29T02:30:35.670Z,91.39
2018-04-29T02:33:03.963Z,91.44
2018-04-29T02:35:32.235Z,91.55
2018-04-29T02:38:00.506Z,91.89
2018-04-29T02:40:28.790Z,91.33
2018-04-29T02:42:57.068Z,91.56
2018-04-29T02:45:25.430Z,92.10
2018-04-29T02:47:53.723Z,92.08
2018-04-29T02:50:21.980Z,91.88
2018-04-29T02:52:50.271Z,93.14
2018-04-29T02:55:18.536Z,94.08
2018-04-29T02:57:46.823Z,93.78
2018-04-29T03:00:15.185Z,93.89
2018-04-29T03:02:43.435Z,93.97
2018-04-29T03:05:12.461Z,95.10
2018-04-29T03:07:41.095Z,94.87
2018-04-29T03:10:09.431Z,93.81
2018-04-29T03:12:37.717Z,93.84
2018-04-29T03:15:06.083Z,92.99
2018-04-29T03:17:34.361Z,92.20
2018-04-29T03:20:02.647Z,91.60
2018-04-29T03:22:31.017Z,91.04
2018-04-29T03:24:59.290Z,90.65
2018-04-29T03:27:27.577Z,90.36
2018-04-29T03:29:55.943Z,89.54
2018-04-29T03:32:24.227Z,89.38
2018-04-29T03:34:52.479Z,89.07
2018-04-29T03:37:21.512Z,88.98
2018-04-29T03:39:49.779Z,89.19
2018-04-29T03:42:18.031Z,89.47
2018-04-29T03:44:46.307Z,89.94
2018-04-29T03:47:14.604Z,90.60
2018-04-29T03:49:42.858Z,90.37
2018-04-29T03:52:11.129Z,89.64
2018-04-29T03:54:39.435Z,89.57
2018-04-29T03:57:25.460Z,90.75
2018-04-29T04:00:11.515Z,90.86
2018-04-29T04:02:57.709Z,90.77
2018-04-29T04:05:25.962Z,91.13
2018-04-29T04:07:54.987Z,91.53
2018-04-29T04:10:23.262Z,91.58
2018-04-29T04:12:51.532Z,91.64
2018-04-29T04:15:19.779Z,91.59
2018-04-29T04:17:48.817Z,92.21
2018-04-29T04:20:17.112Z,91.27
2018-04-29T04:22:45.456Z,91.29
2018-04-29T04:25:13.731Z,91.32
2018-04-29T04:27:42.691Z,90.43
2018-04-29T04:30:11.719Z,90.52
2018-04-29T04:32:39.994Z,90.47
2018-04-29T04:35:08.252Z,90.18
2018-04-29T04:37:36.544Z,89.97
2018-04-29T04:40:04.818Z,89.88
2018-04-29T04:42:33.125Z,89.66
2018-04-29T04:45:01.474Z,89.84
2018-04-29T04:47:29.779Z,89.58
2018-04-29T04:49:58.035Z,89.35
2018-04-29T04:52:26.287Z,89.29
2018-04-29T04:54:54.563Z,89.56
2018-04-29T04:57:23.591Z,89.26
2018-04-29T04:59:51.959Z,89.04
2018-04-29T05:02:20.247Z,88.54
2018-04-29T05:04:48.499Z,88.74
2018-04-29T05:07:16.779Z,88.88
2018-04-29T05:09:45.043Z,88.38
2018-04-29T05:12:13.298Z,88.38
2018-04-29T05:14:42.319Z,88.20
2018-04-29T05:17:10.591Z,88.05
2018-04-29T05:19:38.855Z,88.54
2018-04-29T05:22:07.925Z,88.22
2018-04-29T05:24:36.169Z,88.14
2018-04-29T05:27:04.419Z,87.78
2018-04-29T05:29:32.670Z,87.55
2018-04-29T05:32:01.788Z,87.67
2018-04-29T05:34:30.067Z,88.26
2018-04-29T05:36:58.323Z,88.80
2018-04-29T05:39:27.361Z,88.58
2018-04-29T05:41:55.631Z,88.55
2018-04-29T05:44:23.998Z,87.83
2018-04-29T05:46:52.295Z,87.31
2018-04-29T05:49:20.571Z,86.90
2018-04-29T05:51:48.832Z,86.90
2018-04-29T05:54:17.109Z,86.34
2018-04-29T05:56:45.400Z,86.73
2018-04-29T05:59:13.656Z,86.53
2018-04-29T06:01:41.927Z,86.16
2018-04-29T06:04:10.183Z,85.46
2018-04-29T06:06:39.347Z,85.65
2018-04-29T06:09:07.691Z,85.50
2018-04-29T06:11:35.948Z,85.32
2018-04-29T06:14:04.263Z,85.14
2018-04-29T06:16:32.548Z,84.93
2018-04-29T06:19:00.803Z,84.17
2018-04-29T06:21:29.916Z,83.23
2018-04-29T06:23:58.268Z,83.79
2018-04-29T06:26:26.535Z,84.75
2018-04-29T06:28:54.805Z,84.96
2018-04-29T06:31:23.103Z,84.67
2018-04-29T06:33:51.367Z,84.78
2018-04-29T06:36:19.652Z,84.22
2018-04-29T06:38:47.932Z,82.97
2018-04-29T06:41:16.187Z,82.55
2018-04-29T06:43:44.468Z,79.95
2018-04-29T06:46:12.722Z,79.58
2018-04-29T06:48:41.846Z,79.09
2018-04-29T06:51:10.194Z,78.63
2018-04-29T06:53:39.222Z,78.25
2018-04-29T06:56:07.475Z,79.73
2018-04-29T06:58:35.750Z,83.13
2018-04-29T07:01:04.010Z,84.04
2018-04-29T07:03:33.054Z,85.12
2018-04-29T07:06:01.318Z,85.66
2018-04-29T07:08:29.592Z,84.83
2018-04-29T07:10:57.860Z,84.09
2018-04-29T07:13:26.118Z,83.34
2018-04-29T07:15:55.161Z,83.41
2018-04-29T07:18:23.447Z,84.12
2018-04-29T07:20:51.710Z,83.22
2018-04-29T07:23:19.991Z,82.16
2018-04-29T07:25:48.345Z,80.23
2018-04-29T07:28:16.602Z,80.17
2018-04-29T07:30:44.879Z,79.89
2018-04-29T07:33:13.198Z,78.96
2018-04-29T07:35:41.550Z,78.73
2018-04-29T07:38:09.822Z,77.35
2018-04-29T07:40:38.083Z,77.53
2018-04-29T07:43:06.366Z,77.13
2018-04-29T07:45:34.630Z,75.92
2018-04-29T07:48:03.753Z,76.42
2018-04-29T07:50:32.132Z,76.81
2018-04-29T07:53:00.410Z,75.41
2018-04-29T07:55:28.685Z,75.11
2018-04-29T07:57:56.998Z,75.08
2018-04-29T08:00:25.259Z,73.02
2018-04-29T08:02:53.618Z,71.75
2018-04-29T08:05:21.882Z,71.42
2018-04-29T08:07:50.170Z,69.91
2018-04-29T08:10:18.456Z,68.81
2018-04-29T08:12:46.718Z,70.31
2018-04-29T08:15:15.103Z,67.32
2018-04-29T08:17:45.410Z,62.85
2018-04-29T08:20:13.696Z,62.94
2018-04-29T08:22:42.038Z,62.00
2018-04-29T08:25:10.252Z,60.18
2018-04-29T08:27:38.527Z,60.56
2018-04-29T08:30:06.847Z,58.13
2018-04-29T08:32:35.080Z,60.70
2018-04-29T08:35:03.359Z,59.67
2018-04-29T08:37:31.642Z,57.03
2018-04-29T08:39:59.902Z,57.25
2018-04-29T08:42:28.292Z,57.42
2018-04-29T08:44:56.547Z,57.38
2018-04-29T08:47:24.870Z,58.47
2018-04-29T08:49:53.155Z,60.88
2018-04-29T08:52:21.513Z,61.56
2018-04-29T08:54:49.777Z,62.14
2018-04-29T08:57:18.157Z,63.80
2018-04-29T08:59:46.426Z,65.07
2018-04-29T09:02:14.712Z,66.43
2018-04-29T09:04:43.001Z,66.77
2018-04-29T09:07:11.261Z,65.50
2018-04-29T09:09:39.638Z,65.76
2018-04-29T09:12:07.937Z,64.15
2018-04-29T09:14:36.212Z,65.56
2018-04-29T09:17:04.507Z,63.47
2018-04-29T09:19:32.883Z,62.57
2018-04-29T09:22:01.223Z,59.81
2018-04-29T09:24:29.508Z,59.88
2018-04-29T09:26:57.776Z,59.58
2018-04-29T09:29:26.061Z,60.84
2018-04-29T09:31:54.339Z,62.82
2018-04-29T09:34:22.607Z,63.46
2018-04-29T09:36:50.878Z,63.26
2018-04-29T09:39:19.151Z,60.22
2018-04-29T09:41:47.411Z,61.60
2018-04-29T09:44:16.441Z,58.00
2018-04-29T09:46:44.801Z,56.46
2018-04-29T09:49:13.087Z,56.80
2018-04-29T09:51:41.382Z,57.46
2018-04-29T09:54:09.810Z,57.58
2018-04-29T09:56:38.000Z,57.08
2018-04-29T09:59:06.270Z,55.90
2018-04-29T10:01:35.471Z,55.21
2018-04-29T10:04:03.763Z,55.92
2018-04-29T10:06:32.019Z,56.88
2018-04-29T10:09:00.320Z,55.89
2018-04-29T10:11:28.592Z,56.79
2018-04-29T10:13:56.876Z,56.13
2018-04-29T10:16:25.959Z,56.59
2018-04-29T10:18:54.291Z,56.81
2018-04-29T10:21:22.617Z,57.06
2018-04-29T10:23:50.901Z,59.96
2018-04-29T10:26:19.149Z,58.83
2018-04-29T10:28:47.435Z,58.63
2018-04-29T10:31:15.724Z,60.77
2018-04-29T10:33:43.987Z,64.23
2018-04-29T10:36:12.275Z,65.85
2018-04-29T10:38:40.535Z,65.42
2018-04-29T10:41:08.825Z,67.39
2018-04-29T10:43:37.082Z,63.78
2018-04-29T10:46:06.199Z,63.42
2018-04-29T10:48:34.580Z,64.17
2018-04-29T10:51:02.899Z,61.66
2018-04-29T10:53:31.174Z,61.53
2018-04-29T10:56:00.223Z,60.61
2018-04-29T10:58:28.487Z,59.93
2018-04-29T11:00:56.762Z,59.22
2018-04-29T11:03:25.058Z,60.24
2018-04-29T11:05:53.334Z,58.85
2018-04-29T11:08:21.619Z,58.19
2018-04-29T11:10:49.988Z,58.47
2018-04-29T11:13:18.250Z,56.98
2018-04-29T11:15:46.527Z,56.66
2018-04-29T11:18:14.791Z,54.38
2018-04-29T11:20:43.830Z,56.73
2018-04-29T11:23:12.087Z,54.18
2018-04-29T11:25:40.349Z,55.98
2018-04-29T11:28:08.644Z,56.19
2018-04-29T11:30:37.104Z,57.43
2018-04-29T11:33:05.367Z,56.26
2018-04-29T11:35:34.423Z,55.86
2018-04-29T11:38:02.774Z,56.30
2018-04-29T11:40:31.139Z,54.56
2018-04-29T11:42:59.318Z,58.44
2018-04-29T11:45:27.602Z,53.41
2018-04-29T11:47:55.858Z,55.24
2018-04-29T11:50:24.150Z,55.26
2018-04-29T11:52:52.402Z,56.13
2018-04-29T11:55:20.662Z,56.28
2018-04-29T11:57:49.699Z,55.52
2018-04-29T12:00:17.958Z,53.65
2018-04-29T12:02:46.218Z,53.68
2018-04-29T12:05:15.278Z,53.95
2018-04-29T12:07:43.531Z,54.30
2018-04-29T12:10:11.793Z,51.73
2018-04-29T12:12:40.067Z,53.08
2018-04-29T12:15:08.343Z,51.04
2018-04-29T12:17:36.611Z,51.58
2018-04-29T12:20:04.900Z,51.42
2018-04-29T12:22:33.155Z,50.37
2018-04-29T12:25:01.419Z,50.33
2018-04-29T12:27:30.499Z,51.32
2018-04-29T12:29:58.768Z,51.37
2018-04-29T12:32:27.044Z,50.86
2018-04-29T12:34:55.319Z,49.32
2018-04-29T12:37:23.597Z,53.05
2018-04-29T12:39:51.986Z,51.41
2018-04-29T12:42:20.138Z,50.03
2018-04-29T12:44:48.406Z,50.78
2018-04-29T12:47:16.682Z,48.57
2018-04-29T12:49:44.947Z,45.81
2018-04-29T12:52:13.251Z,45.37
2018-04-29T12:54:41.486Z,44.35
2018-04-29T12:57:09.741Z,47.28
2018-04-29T12:59:38.000Z,45.94
2018-04-29T13:02:07.043Z,47.50
2018-04-29T13:04:35.302Z,46.64
2018-04-29T13:07:03.600Z,46.27
2018-04-29T13:09:31.870Z,46.66
2018-04-29T13:12:00.131Z,45.80
2018-04-29T13:14:28.407Z,45.90
2018-04-29T13:16:56.665Z,46.21
2018-04-29T13:19:24.938Z,47.22
2018-04-29T13:21:54.003Z,46.29
2018-04-29T13:24:22.255Z,47.53
2018-04-29T13:26:50.521Z,47.41
2018-04-29T13:29:18.809Z,47.17
2018-04-29T13:31:47.075Z,46.74
2018-04-29T13:34:15.340Z,46.91
2018-04-29T13:36:43.616Z,46.61
2018-04-29T13:39:11.898Z,45.32
2018-04-29T13:41:40.166Z,45.50
2018-04-29T13:44:08.483Z,45.12
2018-04-29T13:46:36.743Z,41.90
2018-04-29T13:49:05.027Z,41.89
2018-04-29T13:51:33.334Z,39.56
2018-04-29T13:54:02.366Z,38.36
2018-04-29T13:56:30.649Z,37.64
2018-04-29T13:58:58.919Z,37.90
2018-04-29T14:01:27.292Z,36.79
2018-04-29T14:03:55.548Z,37.05
2018-04-29T14:06:23.832Z,38.87
2018-04-29T14:08:52.103Z,37.46
2018-04-29T14:11:20.364Z,37.07
2018-04-29T14:13:50.146Z,36.84
2018-04-29T14:16:18.408Z,37.28
2018-04-29T14:18:46.678Z,34.87
2018-04-29T14:21:14.947Z,35.61
2018-04-29T14:23:43.211Z,34.40
2018-04-29T14:26:11.468Z,34.23
2018-04-29T14:28:39.750Z,34.39
2018-04-29T14:31:08.029Z,33.49
2018-04-29T14:33:36.322Z,32.94
2018-04-29T14:36:04.577Z,35.34
2018-04-29T14:38:32.841Z,34.56
2018-04-29T14:41:01.884Z,34.93
2018-04-29T14:43:30.241Z,34.78
2018-04-29T14:45:58.518Z,34.90
2018-04-29T14:48:27.102Z,34.82
2018-04-29T14:50:55.359Z,34.57
2018-04-29T14:53:23.647Z,33.89
2018-04-29T14:55:51.908Z,35.10
2018-04-29T14:58:20.944Z,35.44
2018-04-29T15:00:49.215Z,34.71
2018-04-29T15:03:17.479Z,33.95
2018-04-29T15:05:45.738Z,34.18
2018-04-29T15:08:14.015Z,34.93
2018-04-29T15:10:42.278Z,34.12
2018-04-29T15:13:11.307Z,33.86
2018-04-29T15:15:39.586Z,33.02
2018-04-29T15:18:07.855Z,32.68
2018-04-29T15:20:36.139Z,33.00
2018-04-29T15:23:04.410Z,33.08
2018-04-29T15:25:32.665Z,33.86
2018-04-29T15:28:00.942Z,33.89
2018-04-29T15:30:29.195Z,35.05
2018-04-29T15:32:58.219Z,35.36
2018-04-29T15:35:26.499Z,35.68
2018-04-29T15:37:55.993Z,36.69
2018-04-29T15:40:25.019Z,38.31
2018-04-29T15:42:53.377Z,39.66
2018-04-29T15:45:21.636Z,41.36
2018-04-29T15:47:49.890Z,42.31
2018-04-29T15:50:18.943Z,44.06
2018-04-29T15:52:47.195Z,45.28
2018-04-29T15:55:15.462Z,45.04
2018-04-29T15:57:43.754Z,46.52
2018-04-29T16:00:12.011Z,47.67
2018-04-29T16:02:40.294Z,47.96
2018-04-29T16:05:08.558Z,47.48
2018-04-29T16:07:37.578Z,47.67
2018-04-29T16:10:05.867Z,48.40
2018-04-29T16:12:34.135Z,48.25
2018-04-29T16:15:02.400Z,49.40
2018-04-29T16:17:30.670Z,50.55
2018-04-29T16:19:58.938Z,51.10
2018-04-29T16:22:27.196Z,52.07
2018-04-29T16:24:56.230Z,52.62
2018-04-29T16:27:24.498Z,53.67
2018-04-29T16:29:52.754Z,53.90
2018-04-29T16:32:21.039Z,54.00
2018-04-29T16:34:49.302Z,54.22
2018-04-29T16:37:18.327Z,54.33
2018-04-29T16:39:46.608Z,54.64
2018-04-29T16:42:14.872Z,54.64
2018-04-29T16:44:43.199Z,54.73
2018-04-29T16:47:11.443Z,55.08
2018-04-29T16:49:39.706Z,56.12
2018-04-29T16:52:07.968Z,55.63
2018-04-29T16:54:36.242Z,55.67
2018-04-29T16:57:04.512Z,56.30
2018-04-29T16:59:32.790Z,56.41
2018-04-29T17:02:01.100Z,56.44
2018-04-29T17:04:29.374Z,56.11
2018-04-29T17:06:57.652Z,56.01
2018-04-29T17:09:25.981Z,56.29
2018-04-29T17:11:54.196Z,57.66
2018-04-29T17:14:22.534Z,56.84
2018-04-29T17:16:50.749Z,57.15
2018-04-29T17:19:19.021Z,57.65
2018-04-29T17:21:47.286Z,57.84
2018-04-29T17:24:15.567Z,59.18
2018-04-29T17:26:43.830Z,59.23
2018-04-29T17:29:12.202Z,59.34
2018-04-29T17:31:40.395Z,60.16
2018-04-29T17:34:08.680Z,60.04
2018-04-29T17:36:36.938Z,60.01
2018-04-29T17:39:05.254Z,60.84
2018-04-29T17:41:34.251Z,60.46
2018-04-29T17:44:02.512Z,60.95
2018-04-29T17:46:30.790Z,60.46
2018-04-29T17:48:59.056Z,60.58
2018-04-29T17:51:28.146Z,60.50
2018-04-29T17:53:56.450Z,60.60
2018-04-29T17:56:24.710Z,61.43
2018-04-29T17:58:52.987Z,60.94
2018-04-29T18:01:21.368Z,61.68
2018-04-29T18:03:49.579Z,62.75
2018-04-29T18:06:17.836Z,62.53
2018-04-29T18:08:46.120Z,62.81
2018-04-29T18:11:14.470Z,63.27
2018-04-29T18:13:42.765Z,63.59
2018-04-29T18:16:11.147Z,63.95
2018-04-29T18:18:39.473Z,64.56
2018-04-29T18:21:07.800Z,64.91
2018-04-29T18:23:36.922Z,65.12
2018-04-29T18:26:05.985Z,65.34
2018-04-29T18:28:34.653Z,65.10
2018-04-29T18:31:04.154Z,65.42
2018-04-29T18:33:34.801Z,66.25
2018-04-29T18:36:04.773Z,66.76
2018-04-29T18:38:34.588Z,66.79
2018-04-29T18:41:06.041Z,67.35
2018-04-29T18:43:35.817Z,67.52
2018-04-29T18:46:06.394Z,67.92
2018-04-29T18:48:36.986Z,68.42
2018-04-29T18:51:07.084Z,68.23
2018-04-29T18:53:36.802Z,68.46
2018-04-29T18:56:07.029Z,69.06
2018-04-29T18:58:36.895Z,69.51
2018-04-29T19:01:07.635Z,69.96
2018-04-29T19:03:37.752Z,69.67
2018-04-29T19:06:08.725Z,70.31
2018-04-29T19:08:38.637Z,70.58
2018-04-29T19:11:08.917Z,70.64
2018-04-29T19:13:38.934Z,70.67
2018-04-29T19:16:09.794Z,70.97
2018-04-29T19:18:39.970Z,70.85
2018-04-29T19:21:10.071Z,70.81
2018-04-29T19:23:39.848Z,71.20
2018-04-29T19:26:13.783Z,71.09
2018-04-29T19:28:43.609Z,71.23
2018-04-29T19:31:13.604Z,71.18
2018-04-29T19:33:43.522Z,71.54
2018-04-29T19:36:13.512Z,71.81
2018-04-29T19:38:43.462Z,72.04
2018-04-29T19:41:13.041Z,72.01
2018-04-29T19:43:42.319Z,71.64
2018-04-29T19:46:12.548Z,71.66
2018-04-29T19:48:41.981Z,71.95
2018-04-29T19:51:11.425Z,71.94
2018-04-29T19:53:41.410Z,72.02
2018-04-29T19:56:10.822Z,72.44
2018-04-29T19:58:40.937Z,72.17
2018-04-29T20:01:10.317Z,72.29
2018-04-29T20:03:39.763Z,72.33
2018-04-29T20:06:09.317Z,72.40
2018-04-29T20:08:38.737Z,72.47
2018-04-29T20:11:08.156Z,72.67
2018-04-29T20:13:37.693Z,72.88
2018-04-29T20:16:07.073Z,72.58
2018-04-29T20:18:36.469Z,72.90
2018-04-29T20:21:05.791Z,72.94
2018-04-29T20:23:35.305Z,72.49
2018-04-29T20:26:04.653Z,72.94
2018-04-29T20:28:34.040Z,72.98
2018-04-29T20:31:04.087Z,72.87
2018-04-29T20:33:33.413Z,72.94
2018-04-29T20:36:02.697Z,72.99
2018-04-29T20:38:31.984Z,72.98
2018-04-29T20:41:01.518Z,72.99
2018-04-29T20:43:30.789Z,73.12
2018-04-29T20:46:00.328Z,72.96
2018-04-29T20:48:31.240Z,72.90
2018-04-29T20:51:01.208Z,72.45
2018-04-29T20:53:32.079Z,72.79
2018-04-29T20:56:01.906Z,72.77
2018-04-29T20:58:30.913Z,72.52
2018-04-29T21:01:00.703Z,72.71
2018-04-29T21:03:29.457Z,73.03
2018-04-29T21:05:58.389Z,72.53
2018-04-29T21:08:27.136Z,72.88
2018-04-29T21:10:55.481Z,72.76
2018-04-29T21:13:24.659Z,72.23
2018-04-29T21:15:53.738Z,72.52
2018-04-29T21:18:22.003Z,72.61
2018-04-29T21:20:50.278Z,72.44
2018-04-29T21:23:18.579Z,72.23
2018-04-29T21:25:46.839Z,71.94
2018-04-29T21:28:15.131Z,72.25
2018-04-29T21:30:43.392Z,71.93
2018-04-29T21:33:11.747Z,71.74
2018-04-29T21:35:40.034Z,71.95
2018-04-29T21:38:08.422Z,72.05
2018-04-29T21:40:36.576Z,71.76
2018-04-29T21:43:04.847Z,72.07
2018-04-29T21:45:33.155Z,71.81
2018-04-29T21:48:01.422Z,71.90
2018-04-29T21:50:29.687Z,72.03
2018-04-29T21:52:57.953Z,72.39
2018-04-29T21:55:26.236Z,72.36
2018-04-29T21:57:54.504Z,72.49
2018-04-29T22:00:22.763Z,72.42
2018-04-29T22:02:51.803Z,72.48
2018-04-29T22:05:20.075Z,72.58
2018-04-29T22:07:48.365Z,72.52
2018-04-29T22:10:16.626Z,72.43
2018-04-29T22:12:44.884Z,72.67
2018-04-29T22:15:13.167Z,72.88
2018-04-29T22:17:41.428Z,73.52
2018-04-29T22:20:09.721Z,73.07
2018-04-29T22:22:38.926Z,73.56
2018-04-29T22:25:07.218Z,73.48
2018-04-29T22:27:35.471Z,73.35
2018-04-29T22:30:03.741Z,73.27
2018-04-29T22:32:32.019Z,74.34
2018-04-29T22:35:00.302Z,74.09
2018-04-29T22:37:28.555Z,73.78
2018-04-29T22:39:56.831Z,73.66
2018-04-29T22:42:25.127Z,74.13
2018-04-29T22:44:53.391Z,74.54
2018-04-29T22:47:21.658Z,74.40
2018-04-29T22:49:49.930Z,74.43
2018-04-29T22:52:18.197Z,74.19
2018-04-29T22:54:47.240Z,73.84
2018-04-29T22:57:15.496Z,74.82
2018-04-29T22:59:43.790Z,74.45
2018-04-29T23:02:12.111Z,73.88
2018-04-29T23:04:41.167Z,73.84
2018-04-29T23:07:09.433Z,74.01
2018-04-29T23:09:37.742Z,74.51
2018-04-29T23:12:06.105Z,73.86
2018-04-29T23:14:34.374Z,75.27
2018-04-29T23:17:02.656Z,75.54
2018-04-29T23:19:30.919Z,75.00
2018-04-29T23:21:59.194Z,74.86
2018-04-29T23:24:27.483Z,75.08
2018-04-29T23:26:55.742Z,74.87
2018-04-29T23:29:24.023Z,74.78
2018-04-29T23:31:52.288Z,74.79
2018-04-29T23:34:20.566Z,74.81
2018-04-29T23:36:49.062Z,74.96
2018-04-29T23:39:18.094Z,75.49
2018-04-29T23:41:47.140Z,76.01
2018-04-29T23:44:15.419Z,76.75
2018-04-29T23:46:43.686Z,76.65
2018-04-29T23:49:11.946Z,76.34
2018-04-29T23:51:40.259Z,75.89
2018-04-29T23:54:08.528Z,76.44
2018-04-29T23:56:36.791Z,76.21
2018-04-29T23:59:05.078Z,75.60
